sensor_id;sensor_type;location;lat;lon;timestamp;pressure;altitude;pressure_sealevel;temperature;humidity
47524;BME280;33253;42.144;25.884;2023-01-29T00:01:03;100708.50;;;2.89;100.00
47524;BME280;33253;42.144;25.884;2023-01-29T00:03:29;100682.50;;;2.69;100.00
47524;BME280;33253;42.144;25.884;2023-01-29T00:05:55;100714.28;;;2.86;100.00
47524;BME280;33253;42.144;25.884;2023-01-29T00:08:20;100700.22;;;2.80;100.00
47524;BME280;33253;42.144;25.884;2023-01-29T00:10:45;100714.84;;;2.94;100.00
47524;BME280;33253;42.144;25.884;2023-01-29T00:13:12;100714.84;;;2.94;100.00
47524;BME280;33253;42.144;25.884;2023-01-29T00:15:37;100716.72;;;2.97;100.00
47524;BME280;33253;42.144;25.884;2023-01-29T00:18:03;100726.03;;;2.96;100.00
47524;BME280;33253;42.144;25.884;2023-01-29T00:20:29;100734.13;;;2.90;100.00
47524;BME280;33253;42.144;25.884;2023-01-29T00:22:55;100716.16;;;2.89;100.00
47524;BME280;33253;42.144;25.884;2023-01-29T00:25:20;100688.13;;;2.65;100.00
47524;BME280;33253;42.144;25.884;2023-01-29T00:27:46;100725.38;;;2.87;100.00
47524;BME280;33253;42.144;25.884;2023-01-29T00:30:12;100730.56;;;2.88;100.00
47524;BME280;33253;42.144;25.884;2023-01-29T00:32:41;100740.00;;;2.89;100.00
47524;BME280;33253;42.144;25.884;2023-01-29T00:35:07;100729.25;;;2.82;100.00
47524;BME280;33253;42.144;25.884;2023-01-29T00:37:34;100729.69;;;2.76;100.00
47524;BME280;33253;42.144;25.884;2023-01-29T00:40:19;100739.88;;;2.76;100.00
47524;BME280;33253;42.144;25.884;2023-01-29T00:42:45;100734.34;;;2.70;100.00
47524;BME280;33253;42.144;25.884;2023-01-29T00:45:29;100732.47;;;2.67;100.00
47524;BME280;33253;42.144;25.884;2023-01-29T00:47:55;100710.50;;;2.57;100.00
47524;BME280;33253;42.144;25.884;2023-01-29T00:50:20;100729.47;;;2.73;100.00
47524;BME280;33253;42.144;25.884;2023-01-29T00:52:46;100725.69;;;2.68;100.00
47524;BME280;33253;42.144;25.884;2023-01-29T00:55:12;100734.34;;;2.70;100.00
47524;BME280;33253;42.144;25.884;2023-01-29T00:57:38;100737.56;;;2.79;100.00
47524;BME280;33253;42.144;25.884;2023-01-29T01:00:06;100744.09;;;2.87;100.00
47524;BME280;33253;42.144;25.884;2023-01-29T01:02:32;100691.56;;;2.66;100.00
47524;BME280;33253;42.144;25.884;2023-01-29T01:05:16;100746.09;;;2.91;100.00
47524;BME280;33253;42.144;25.884;2023-01-29T01:07:53;100735.00;;;2.91;100.00
47524;BME280;33253;42.144;25.884;2023-01-29T01:10:30;100745.31;;;3.04;100.00
47524;BME280;33253;42.144;25.884;2023-01-29T01:12:59;100705.31;;;2.80;100.00
47524;BME280;33253;42.144;25.884;2023-01-29T01:15:32;100744.97;;;3.00;100.00
47524;BME280;33253;42.144;25.884;2023-01-29T01:17:59;100747.88;;;3.04;100.00
47524;BME280;33253;42.144;25.884;2023-01-29T01:20:26;100749.66;;;3.05;100.00
47524;BME280;33253;42.144;25.884;2023-01-29T01:22:53;100759.97;;;3.07;100.00
47524;BME280;33253;42.144;25.884;2023-01-29T01:25:19;100752.19;;;3.05;100.00
47524;BME280;33253;42.144;25.884;2023-01-29T01:27:45;100749.84;;;3.08;100.00
47524;BME280;33253;42.144;25.884;2023-01-29T01:30:13;100755.41;;;3.15;100.00
47524;BME280;33253;42.144;25.884;2023-01-29T01:32:39;100739.00;;;2.99;100.00
47524;BME280;33253;42.144;25.884;2023-01-29T01:35:05;100705.53;;;2.71;100.00
47524;BME280;33253;42.144;25.884;2023-01-29T01:37:31;100746.53;;;2.98;100.00
47524;BME280;33253;42.144;25.884;2023-01-29T01:39:57;100756.28;;;3.03;100.00
47524;BME280;33253;42.144;25.884;2023-01-29T01:42:29;100751.19;;;3.03;100.00
47524;BME280;33253;42.144;25.884;2023-01-29T01:44:56;100753.50;;;3.00;100.00
47524;BME280;33253;42.144;25.884;2023-01-29T01:48:23;100754.50;;;3.02;100.00
47524;BME280;33253;42.144;25.884;2023-01-29T01:51:00;100751.19;;;3.03;100.00
47524;BME280;33253;42.144;25.884;2023-01-29T01:53:51;100756.97;;;3.01;100.00
47524;BME280;33253;42.144;25.884;2023-01-29T01:56:30;100761.06;;;2.99;100.00
47524;BME280;33253;42.144;25.884;2023-01-29T01:59:05;100722.28;;;2.79;100.00
47524;BME280;33253;42.144;25.884;2023-01-29T02:01:31;100747.19;;;2.95;100.00
47524;BME280;33253;42.144;25.884;2023-01-29T02:04:26;100752.19;;;3.05;100.00
47524;BME280;33253;42.144;25.884;2023-01-29T02:07:13;100745.66;;;2.97;100.00
47524;BME280;33253;42.144;25.884;2023-01-29T02:10:09;100743.78;;;2.95;100.00
47524;BME280;33253;42.144;25.884;2023-01-29T02:12:37;100755.72;;;3.07;100.00
47524;BME280;33253;42.144;25.884;2023-01-29T02:15:03;100741.09;;;3.05;100.00
47524;BME280;33253;42.144;25.884;2023-01-29T02:17:29;100771.38;;;3.12;100.00
47524;BME280;33253;42.144;25.884;2023-01-29T02:30:45;100770.06;;;3.05;100.00
47524;BME280;33253;42.144;25.884;2023-01-29T02:36:14;100781.56;;;3.12;100.00
47524;BME280;33253;42.144;25.884;2023-01-29T02:41:41;100782.44;;;3.13;100.00
47524;BME280;33253;42.144;25.884;2023-01-29T02:44:27;100743.22;;;2.87;100.00
47524;BME280;33253;42.144;25.884;2023-01-29T02:49:48;100785.81;;;3.12;100.00
47524;BME280;33253;42.144;25.884;2023-01-29T02:52:24;100768.38;;;3.06;100.00
47524;BME280;33253;42.144;25.884;2023-01-29T02:54:57;100780.47;;;3.08;100.00
47524;BME280;33253;42.144;25.884;2023-01-29T02:57:30;100787.69;;;3.14;100.00
47524;BME280;33253;42.144;25.884;2023-01-29T03:00:02;100788.66;;;3.16;100.00
47524;BME280;33253;42.144;25.884;2023-01-29T03:05:13;100792.56;;;3.11;100.00
47524;BME280;33253;42.144;25.884;2023-01-29T03:07:45;100795.09;;;3.11;100.00
47524;BME280;33253;42.144;25.884;2023-01-29T03:10:23;100798.66;;;3.13;100.00
47524;BME280;33253;42.144;25.884;2023-01-29T03:12:54;100728.56;;;2.72;100.00
47524;BME280;33253;42.144;25.884;2023-01-29T03:15:33;100810.84;;;3.17;100.00
47524;BME280;33253;42.144;25.884;2023-01-29T03:18:10;100813.75;;;3.22;100.00
47524;BME280;33253;42.144;25.884;2023-01-29T03:20:45;100813.75;;;3.22;100.00
47524;BME280;33253;42.144;25.884;2023-01-29T03:23:22;100815.28;;;3.20;100.00
47524;BME280;33253;42.144;25.884;2023-01-29T03:26:09;100815.09;;;3.17;100.00
47524;BME280;33253;42.144;25.884;2023-01-29T03:28:54;100822.63;;;3.03;100.00
47524;BME280;33253;42.144;25.884;2023-01-29T03:31:38;100826.19;;;3.05;100.00
47524;BME280;33253;42.144;25.884;2023-01-29T03:34:23;100819.06;;;3.01;100.00
47524;BME280;33253;42.144;25.884;2023-01-29T03:37:02;100748.06;;;2.60;100.00
47524;BME280;33253;42.144;25.884;2023-01-29T03:39:32;100818.41;;;2.92;100.00
47524;BME280;33253;42.144;25.884;2023-01-29T03:45:15;100836.34;;;2.94;100.00
47524;BME280;33253;42.144;25.884;2023-01-29T03:48:11;100792.88;;;2.68;100.00
47524;BME280;33253;42.144;25.884;2023-01-29T03:53:31;100836.91;;;2.89;100.00
47524;BME280;33253;42.144;25.884;2023-01-29T03:56:00;100833.69;;;2.92;100.00
47524;BME280;33253;42.144;25.884;2023-01-29T03:58:38;100838.78;;;2.92;100.00
47524;BME280;33253;42.144;25.884;2023-01-29T04:03:58;100834.88;;;2.85;100.00
47524;BME280;33253;42.144;25.884;2023-01-29T04:06:33;100839.13;;;2.85;100.00
47524;BME280;33253;42.144;25.884;2023-01-29T04:09:22;100842.69;;;2.87;100.00
47524;BME280;33253;42.144;25.884;2023-01-29T04:11:58;100836.56;;;2.73;100.00
47524;BME280;33253;42.144;25.884;2023-01-29T04:14:26;100837.94;;;2.57;100.00
47524;BME280;33253;42.144;25.884;2023-01-29T04:16:54;100797.66;;;2.30;100.00
47524;BME280;33253;42.144;25.884;2023-01-29T04:19:22;100845.25;;;2.53;100.00
47524;BME280;33253;42.144;25.884;2023-01-29T04:21:49;100851.91;;;2.51;100.00
47524;BME280;33253;42.144;25.884;2023-01-29T04:24:19;100829.16;;;2.42;100.00
47524;BME280;33253;42.144;25.884;2023-01-29T04:26:59;100854.38;;;2.61;100.00
47524;BME280;33253;42.144;25.884;2023-01-29T04:30:10;100856.81;;;2.59;100.00
47524;BME280;33253;42.144;25.884;2023-01-29T04:41:45;100825.38;;;2.37;100.00
47524;BME280;33253;42.144;25.884;2023-01-29T04:47:05;100857.69;;;2.60;100.00
47524;BME280;33253;42.144;25.884;2023-01-29T04:52:44;100876.88;;;2.67;100.00
47524;BME280;33253;42.144;25.884;2023-01-29T05:00:56;100871.28;;;2.49;100.00
47524;BME280;33253;42.144;25.884;2023-01-29T05:03:24;100879.78;;;2.49;100.00
47524;BME280;33253;42.144;25.884;2023-01-29T05:05:53;100840.63;;;2.25;100.00
47524;BME280;33253;42.144;25.884;2023-01-29T05:08:24;100882.94;;;2.57;100.00
47524;BME280;33253;42.144;25.884;2023-01-29T05:10:51;100889.03;;;2.59;100.00
47524;BME280;33253;42.144;25.884;2023-01-29T05:13:19;100862.50;;;2.45;100.00
47524;BME280;33253;42.144;25.884;2023-01-29T05:16:11;100892.94;;;2.66;100.00
47524;BME280;33253;42.144;25.884;2023-01-29T05:18:38;100904.03;;;2.66;100.00
47524;BME280;33253;42.144;25.884;2023-01-29T05:21:06;100896.38;;;2.66;100.00
47524;BME280;33253;42.144;25.884;2023-01-29T05:23:32;100855.97;;;2.37;100.00
47524;BME280;33253;42.144;25.884;2023-01-29T05:25:58;100899.00;;;2.56;100.00
47524;BME280;33253;42.144;25.884;2023-01-29T05:28:23;100905.44;;;2.51;100.00
47524;BME280;33253;42.144;25.884;2023-01-29T05:30:51;100874.00;;;2.40;100.00
47524;BME280;33253;42.144;25.884;2023-01-29T05:33:19;100898.34;;;2.58;100.00
47524;BME280;33253;42.144;25.884;2023-01-29T05:35:45;100913.66;;;2.58;100.00
47524;BME280;33253;42.144;25.884;2023-01-29T05:38:11;100908.31;;;2.55;100.00
47524;BME280;33253;42.144;25.884;2023-01-29T05:40:37;100868.63;;;2.25;100.00
47524;BME280;33253;42.144;25.884;2023-01-29T05:43:03;100920.47;;;2.48;100.00
47524;BME280;33253;42.144;25.884;2023-01-29T05:45:30;100930.84;;;2.39;100.00
47524;BME280;33253;42.144;25.884;2023-01-29T05:47:57;100925.41;;;2.12;100.00
47524;BME280;33253;42.144;25.884;2023-01-29T05:50:23;100936.16;;;1.98;100.00
47524;BME280;33253;42.144;25.884;2023-01-29T05:52:49;100928.88;;;1.59;100.00
47524;BME280;33253;42.144;25.884;2023-01-29T05:55:19;100940.53;;;1.15;100.00
47524;BME280;33253;42.144;25.884;2023-01-29T05:57:45;100947.31;;;1.04;100.00
47524;BME280;33253;42.144;25.884;2023-01-29T06:00:11;100940.06;;;0.88;100.00
47524;BME280;33253;42.144;25.884;2023-01-29T06:02:37;100940.03;;;0.67;100.00
47524;BME280;33253;42.144;25.884;2023-01-29T06:05:02;100921.44;;;0.37;100.00
47524;BME280;33253;42.144;25.884;2023-01-29T06:07:28;100957.28;;;0.61;100.00
47524;BME280;33253;42.144;25.884;2023-01-29T06:09:53;100968.25;;;0.60;100.00
47524;BME280;33253;42.144;25.884;2023-01-29T06:12:20;100974.31;;;0.62;100.00
47524;BME280;33253;42.144;25.884;2023-01-29T06:14:45;100967.84;;;0.45;100.00
47524;BME280;33253;42.144;25.884;2023-01-29T06:17:11;100970.81;;;0.30;100.00
47524;BME280;33253;42.144;25.884;2023-01-29T06:19:36;100977.47;;;0.39;100.00
47524;BME280;33253;42.144;25.884;2023-01-29T06:22:02;100914.00;;;0.09;100.00
47524;BME280;33253;42.144;25.884;2023-01-29T06:24:27;100982.03;;;0.43;100.00
47524;BME280;33253;42.144;25.884;2023-01-29T06:26:53;100977.31;;;0.37;100.00
47524;BME280;33253;42.144;25.884;2023-01-29T06:29:18;100979.84;;;0.37;100.00
47524;BME280;33253;42.144;25.884;2023-01-29T06:31:43;100989.97;;;0.56;100.00
47524;BME280;33253;42.144;25.884;2023-01-29T06:34:09;100983.09;;;0.66;100.00
47524;BME280;33253;42.144;25.884;2023-01-29T06:36:34;100992.28;;;0.84;100.00
47524;BME280;33253;42.144;25.884;2023-01-29T06:39:00;100968.78;;;0.76;100.00
47524;BME280;33253;42.144;25.884;2023-01-29T06:41:26;100993.56;;;0.89;100.00
47524;BME280;33253;42.144;25.884;2023-01-29T06:43:51;101007.66;;;0.86;100.00
47524;BME280;33253;42.144;25.884;2023-01-29T06:46:17;101002.56;;;0.86;100.00
47524;BME280;33253;42.144;25.884;2023-01-29T06:48:42;100927.78;;;0.32;100.00
47524;BME280;33253;42.144;25.884;2023-01-29T06:51:09;101006.09;;;0.67;100.00
47524;BME280;33253;42.144;25.884;2023-01-29T06:53:36;101008.16;;;0.71;100.00
47524;BME280;33253;42.144;25.884;2023-01-29T06:56:02;101009.31;;;0.75;100.00
47524;BME280;33253;42.144;25.884;2023-01-29T06:58:28;101001.94;;;0.88;100.00
47524;BME280;33253;42.144;25.884;2023-01-29T07:00:53;100982.13;;;0.74;100.00
47524;BME280;33253;42.144;25.884;2023-01-29T07:03:19;101011.75;;;0.94;100.00
47524;BME280;33253;42.144;25.884;2023-01-29T07:05:51;101017.19;;;0.78;100.00
47524;BME280;33253;42.144;25.884;2023-01-29T07:08:17;101009.66;;;0.69;100.00
47524;BME280;33253;42.144;25.884;2023-01-29T07:10:43;101021.22;;;0.76;100.00
47524;BME280;33253;42.144;25.884;2023-01-29T07:13:08;101024.97;;;0.90;100.00
47524;BME280;33253;42.144;25.884;2023-01-29T07:15:34;101020.75;;;0.90;100.00
47524;BME280;33253;42.144;25.884;2023-01-29T07:18:01;100991.66;;;0.76;100.00
47524;BME280;33253;42.144;25.884;2023-01-29T07:20:29;101030.31;;;1.03;100.00
47524;BME280;33253;42.144;25.884;2023-01-29T07:22:56;101018.22;;;1.01;100.00
47524;BME280;33253;42.144;25.884;2023-01-29T07:25:21;101025.97;;;1.02;100.00
47524;BME280;33253;42.144;25.884;2023-01-29T07:27:47;101022.44;;;1.00;100.00
47524;BME280;33253;42.144;25.884;2023-01-29T07:30:14;100945.38;;;0.60;100.00
47524;BME280;33253;42.144;25.884;2023-01-29T07:32:40;101032.72;;;1.12;100.00
47524;BME280;33253;42.144;25.884;2023-01-29T07:35:06;101022.16;;;0.97;100.00
47524;BME280;33253;42.144;25.884;2023-01-29T07:37:32;101020.13;;;0.93;100.00
47524;BME280;33253;42.144;25.884;2023-01-29T07:39:57;101014.81;;;0.90;100.00
47524;BME280;33253;42.144;25.884;2023-01-29T07:42:23;101032.84;;;0.93;100.00
47524;BME280;33253;42.144;25.884;2023-01-29T07:44:48;101025.22;;;0.93;100.00
47524;BME280;33253;42.144;25.884;2023-01-29T07:47:14;101000.78;;;0.85;100.00
47524;BME280;33253;42.144;25.884;2023-01-29T07:49:39;100978.53;;;0.72;100.00
47524;BME280;33253;42.144;25.884;2023-01-29T07:52:05;101027.53;;;1.00;100.00
47524;BME280;33253;42.144;25.884;2023-01-29T07:54:30;101027.53;;;1.00;100.00
47524;BME280;33253;42.144;25.884;2023-01-29T07:56:56;101036.53;;;0.96;100.00
47524;BME280;33253;42.144;25.884;2023-01-29T07:59:22;101022.94;;;0.96;100.00
47524;BME280;33253;42.144;25.884;2023-01-29T08:01:47;101029.19;;;1.10;100.00
47524;BME280;33253;42.144;25.884;2023-01-29T08:04:13;101042.03;;;1.11;100.00
47524;BME280;33253;42.144;25.884;2023-01-29T08:06:39;101033.63;;;1.12;100.00
47524;BME280;33253;42.144;25.884;2023-01-29T08:09:04;101025.22;;;1.03;100.00
47524;BME280;33253;42.144;25.884;2023-01-29T08:11:30;101042.78;;;1.21;100.00
47524;BME280;33253;42.144;25.884;2023-01-29T08:13:55;101036.44;;;1.36;100.00
47524;BME280;33253;42.144;25.884;2023-01-29T08:16:22;101041.16;;;1.21;100.00
47524;BME280;33253;42.144;25.884;2023-01-29T08:18:47;101034.66;;;1.25;100.00
47524;BME280;33253;42.144;25.884;2023-01-29T08:21:13;101040.63;;;1.36;100.00
47524;BME280;33253;42.144;25.884;2023-01-29T08:23:38;101054.50;;;1.39;100.00
47524;BME280;33253;42.144;25.884;2023-01-29T08:26:04;101050.19;;;1.49;100.00
47524;BME280;33253;42.144;25.884;2023-01-29T08:28:30;101057.41;;;1.54;100.00
47524;BME280;33253;42.144;25.884;2023-01-29T08:30:56;101008.97;;;1.42;100.00
47524;BME280;33253;42.144;25.884;2023-01-29T08:33:21;101052.69;;;1.80;100.00
47524;BME280;33253;42.144;25.884;2023-01-29T08:35:50;101047.59;;;1.90;100.00
47524;BME280;33253;42.144;25.884;2023-01-29T08:38:16;101049.22;;;2.00;100.00
47524;BME280;33253;42.144;25.884;2023-01-29T08:40:43;101046.09;;;2.14;100.00
47524;BME280;33253;42.144;25.884;2023-01-29T08:43:09;101055.25;;;2.22;100.00
47524;BME280;33253;42.144;25.884;2023-01-29T08:45:38;101057.16;;;2.25;100.00
47524;BME280;33253;42.144;25.884;2023-01-29T08:48:06;101060.34;;;2.22;100.00
47524;BME280;33253;42.144;25.884;2023-01-29T08:50:31;101058.69;;;2.23;100.00
47524;BME280;33253;42.144;25.884;2023-01-29T08:53:00;101061.00;;;2.20;100.00
47524;BME280;33253;42.144;25.884;2023-01-29T08:55:27;101061.59;;;2.28;100.00
47524;BME280;33253;42.144;25.884;2023-01-29T08:57:53;101047.84;;;2.25;100.00
47524;BME280;33253;42.144;25.884;2023-01-29T09:00:21;101015.19;;;2.09;100.00
47524;BME280;33253;42.144;25.884;2023-01-29T09:02:46;101063.50;;;2.30;100.00
47524;BME280;33253;42.144;25.884;2023-01-29T09:05:12;101068.66;;;2.20;100.00
47524;BME280;33253;42.144;25.884;2023-01-29T09:07:37;101063.09;;;2.03;100.00
47524;BME280;33253;42.144;25.884;2023-01-29T09:10:04;101059.75;;;2.04;100.00
47524;BME280;33253;42.144;25.884;2023-01-29T09:12:30;101060.09;;;2.19;100.00
47524;BME280;33253;42.144;25.884;2023-01-29T09:14:55;101058.78;;;2.35;100.00
47524;BME280;33253;42.144;25.884;2023-01-29T09:17:21;101029.63;;;2.31;100.00
47524;BME280;33253;42.144;25.884;2023-01-29T09:19:46;101047.25;;;2.50;100.00
47524;BME280;33253;42.144;25.884;2023-01-29T09:22:12;101056.75;;;2.63;100.00
47524;BME280;33253;42.144;25.884;2023-01-29T09:24:37;101060.56;;;2.68;100.00
47524;BME280;33253;42.144;25.884;2023-01-29T09:27:03;101059.63;;;2.78;100.00
47524;BME280;33253;42.144;25.884;2023-01-29T09:29:29;101062.50;;;2.83;100.00
47524;BME280;33253;42.144;25.884;2023-01-29T09:31:55;101061.53;;;2.70;100.00
47524;BME280;33253;42.144;25.884;2023-01-29T09:34:20;101062.56;;;2.72;100.00
47524;BME280;33253;42.144;25.884;2023-01-29T09:36:45;101060.66;;;2.70;100.00
47524;BME280;33253;42.144;25.884;2023-01-29T09:39:11;101056.28;;;2.57;100.00
47524;BME280;33253;42.144;25.884;2023-01-29T09:41:48;101062.13;;;2.56;100.00
47524;BME280;33253;42.144;25.884;2023-01-29T09:47:11;101062.84;;;2.43;100.00
47524;BME280;33253;42.144;25.884;2023-01-29T09:49:42;101015.25;;;2.21;100.00
47524;BME280;33253;42.144;25.884;2023-01-29T09:52:16;101050.22;;;2.45;100.00
47524;BME280;33253;42.144;25.884;2023-01-29T09:55:12;101051.84;;;2.44;100.00
47524;BME280;33253;42.144;25.884;2023-01-29T09:57:51;101039.59;;;2.28;100.00
47524;BME280;33253;42.144;25.884;2023-01-29T10:00:33;101046.16;;;2.36;100.00
47524;BME280;33253;42.144;25.884;2023-01-29T10:11:40;101009.28;;;2.21;100.00
47524;BME280;33253;42.144;25.884;2023-01-29T10:14:29;101040.03;;;2.34;100.00
47524;BME280;33253;42.144;25.884;2023-01-29T10:25:38;101021.59;;;2.37;100.00
47524;BME280;33253;42.144;25.884;2023-01-29T10:28:39;100986.63;;;2.14;100.00
47524;BME280;33253;42.144;25.884;2023-01-29T10:31:32;101017.00;;;2.33;100.00
47524;BME280;33253;42.144;25.884;2023-01-29T10:34:02;101007.56;;;2.32;100.00
47524;BME280;33253;42.144;25.884;2023-01-29T10:36:43;100998.47;;;2.46;100.00
47524;BME280;33253;42.144;25.884;2023-01-29T10:39:20;100994.75;;;2.52;100.00
47524;BME280;33253;42.144;25.884;2023-01-29T10:42:10;100997.22;;;2.63;100.00
47524;BME280;33253;42.144;25.884;2023-01-29T10:47:25;100993.31;;;2.56;100.00
47524;BME280;33253;42.144;25.884;2023-01-29T10:50:07;100990.69;;;2.66;100.00
47524;BME280;33253;42.144;25.884;2023-01-29T10:58:35;100980.75;;;2.69;100.00
47524;BME280;33253;42.144;25.884;2023-01-29T11:01:02;100985.06;;;2.70;100.00
47524;BME280;33253;42.144;25.884;2023-01-29T11:03:32;100974.75;;;2.69;100.00
47524;BME280;33253;42.144;25.884;2023-01-29T11:06:19;100973.09;;;2.69;100.00
47524;BME280;33253;42.144;25.884;2023-01-29T11:14:32;100966.78;;;2.64;100.00
47524;BME280;33253;42.144;25.884;2023-01-29T11:17:01;100969.00;;;2.71;100.00
47524;BME280;33253;42.144;25.884;2023-01-29T11:19:47;100964.50;;;2.79;100.00
47524;BME280;33253;42.144;25.884;2023-01-29T11:22:23;100965.19;;;2.88;100.00
47524;BME280;33253;42.144;25.884;2023-01-29T11:25:18;100963.31;;;2.98;100.00
47524;BME280;33253;42.144;25.884;2023-01-29T11:28:02;100961.88;;;3.01;100.00
47524;BME280;33253;42.144;25.884;2023-01-29T11:33:21;100957.56;;;3.00;100.00
47524;BME280;33253;42.144;25.884;2023-01-29T11:35:47;100950.56;;;2.98;100.00
47524;BME280;33253;42.144;25.884;2023-01-29T11:38:23;100957.25;;;3.07;100.00
47524;BME280;33253;42.144;25.884;2023-01-29T11:40:50;100942.31;;;2.78;100.00
47524;BME280;33253;42.144;25.884;2023-01-29T11:43:31;100907.78;;;2.59;100.00
47524;BME280;33253;42.144;25.884;2023-01-29T11:46:05;100913.00;;;2.61;100.00
47524;BME280;33253;42.144;25.884;2023-01-29T11:48:45;100943.63;;;2.73;100.00
47524;BME280;33253;42.144;25.884;2023-01-29T11:51:27;100938.19;;;2.68;100.00
47524;BME280;33253;42.144;25.884;2023-01-29T11:54:01;100934.72;;;2.68;100.00
47524;BME280;33253;42.144;25.884;2023-01-29T11:56:41;100934.31;;;2.73;100.00
47524;BME280;33253;42.144;25.884;2023-01-29T12:01:53;100913.41;;;2.55;100.00
47524;BME280;33253;42.144;25.884;2023-01-29T12:04:22;100921.00;;;2.66;100.00
47524;BME280;33253;42.144;25.884;2023-01-29T12:06:51;100933.91;;;2.79;100.00
47524;BME280;33253;42.144;25.884;2023-01-29T12:09:26;100936.00;;;2.73;100.00
47524;BME280;33253;42.144;25.884;2023-01-29T12:11:53;100934.41;;;2.63;100.00
47524;BME280;33253;42.144;25.884;2023-01-29T12:14:39;100931.41;;;2.69;100.00
47524;BME280;33253;42.144;25.884;2023-01-29T12:17:12;100894.97;;;2.48;100.00
47524;BME280;33253;42.144;25.884;2023-01-29T12:19:52;100931.31;;;2.67;100.00
47524;BME280;33253;42.144;25.884;2023-01-29T12:22:31;100927.88;;;2.45;100.00
47524;BME280;33253;42.144;25.884;2023-01-29T12:25:17;100930.16;;;2.52;100.00
47524;BME280;33253;42.144;25.884;2023-01-29T12:28:36;100933.56;;;2.52;100.00
47524;BME280;33253;42.144;25.884;2023-01-29T12:33:51;100924.91;;;2.50;100.00
47524;BME280;33253;42.144;25.884;2023-01-29T12:38:47;100912.53;;;2.55;100.00
47524;BME280;33253;42.144;25.884;2023-01-29T12:41:32;100927.63;;;2.64;100.00
47524;BME280;33253;42.144;25.884;2023-01-29T12:46:58;100922.34;;;2.72;100.00
47524;BME280;33253;42.144;25.884;2023-01-29T12:49:28;100928.94;;;2.58;100.00
47524;BME280;33253;42.144;25.884;2023-01-29T12:52:37;100930.06;;;2.62;100.00
47524;BME280;33253;42.144;25.884;2023-01-29T12:55:27;100926.97;;;2.66;100.00
47524;BME280;33253;42.144;25.884;2023-01-29T12:58:11;100923.88;;;2.70;100.00
47524;BME280;33253;42.144;25.884;2023-01-29T13:00:39;100928.66;;;2.66;100.00
47524;BME280;33253;42.144;25.884;2023-01-29T13:03:22;100916.56;;;2.63;100.00
47524;BME280;33253;42.144;25.884;2023-01-29T13:05:59;100926.97;;;2.66;100.00
47524;BME280;33253;42.144;25.884;2023-01-29T13:08:34;100928.97;;;2.70;100.00
47524;BME280;33253;42.144;25.884;2023-01-29T13:11:07;100926.56;;;2.72;100.00
47524;BME280;33253;42.144;25.884;2023-01-29T13:13:50;100926.56;;;2.72;100.00
47524;BME280;33253;42.144;25.884;2023-01-29T13:16:19;100928.34;;;2.73;100.00
47524;BME280;33253;42.144;25.884;2023-01-29T13:21:53;100897.09;;;2.75;100.00
47524;BME280;33253;42.144;25.884;2023-01-29T13:24:22;100927.94;;;2.90;100.00
47524;BME280;33253;42.144;25.884;2023-01-29T13:26:49;100928.38;;;2.85;100.00
47524;BME280;33253;42.144;25.884;2023-01-29T13:29:25;100925.41;;;2.90;100.00
47524;BME280;33253;42.144;25.884;2023-01-29T13:31:53;100901.09;;;2.84;100.00
47524;BME280;33253;42.144;25.884;2023-01-29T13:34:33;100927.09;;;3.02;100.00
47524;BME280;33253;42.144;25.884;2023-01-29T13:37:01;100937.03;;;2.99;100.00
47524;BME280;33253;42.144;25.884;2023-01-29T13:39:39;100929.28;;;2.97;100.00
47524;BME280;33253;42.144;25.884;2023-01-29T13:42:18;100929.94;;;2.95;100.00
47524;BME280;33253;42.144;25.884;2023-01-29T13:44:50;100897.00;;;2.86;100.00
47524;BME280;33253;42.144;25.884;2023-01-29T13:47:26;100883.03;;;2.81;100.00
47524;BME280;33253;42.144;25.884;2023-01-29T13:49:56;100929.31;;;3.09;100.00
47524;BME280;33253;42.144;25.884;2023-01-29T13:52:40;100938.06;;;3.13;100.00
47524;BME280;33253;42.144;25.884;2023-01-29T13:55:25;100939.31;;;3.18;100.00
47524;BME280;33253;42.144;25.884;2023-01-29T13:57:57;100933.78;;;3.23;100.00
47524;BME280;33253;42.144;25.884;2023-01-29T14:10:40;100940.66;;;3.36;100.00
47524;BME280;33253;42.144;25.884;2023-01-29T14:15:45;100936.56;;;3.38;100.00
47524;BME280;33253;42.144;25.884;2023-01-29T14:18:20;100938.66;;;3.32;100.00
47524;BME280;33253;42.144;25.884;2023-01-29T14:25:44;100938.22;;;3.26;100.00
47524;BME280;33253;42.144;25.884;2023-01-29T14:28:28;100939.78;;;3.24;100.00
47524;BME280;33253;42.144;25.884;2023-01-29T14:30:55;100942.53;;;3.27;100.00
47524;BME280;33253;42.144;25.884;2023-01-29T14:33:25;100945.50;;;3.21;100.00
47524;BME280;33253;42.144;25.884;2023-01-29T14:35:54;100949.38;;;3.04;100.00
47524;BME280;33253;42.144;25.884;2023-01-29T14:38:22;100955.91;;;3.01;100.00
47524;BME280;33253;42.144;25.884;2023-01-29T14:41:02;100938.56;;;2.85;100.00
47524;BME280;33253;42.144;25.884;2023-01-29T14:43:29;100958.56;;;2.90;100.00
47524;BME280;33253;42.144;25.884;2023-01-29T14:46:40;100960.44;;;2.93;100.00
47524;BME280;33253;42.144;25.884;2023-01-29T14:49:07;100952.19;;;2.85;100.00
47524;BME280;33253;42.144;25.884;2023-01-29T14:51:35;100944.72;;;2.77;100.00
47524;BME280;33253;42.144;25.884;2023-01-29T14:54:21;100945.63;;;2.77;100.00
47524;BME280;33253;42.144;25.884;2023-01-29T14:56:59;100951.75;;;2.79;100.00
47524;BME280;33253;42.144;25.884;2023-01-29T14:59:33;100953.09;;;2.86;100.00
47524;BME280;33253;42.144;25.884;2023-01-29T15:02:23;100949.22;;;2.91;100.00
47524;BME280;33253;42.144;25.884;2023-01-29T15:04:53;100954.69;;;2.96;100.00